Bloomington (BMI/KBMI)

Map

Destinations

Information

Location
Bloomington, IL
Local Time
12:00 / 12:00 pm
GMT Time
18:00 / 6:00 pm
Gates
A1
No FAA reported delays
METAR KBMI 191756Z 28016KT 10SM CLR 01/M07 A3014 RMK AO2 SLP230 T00061072 10017 21044 50009
TAF KBMI 191729Z 1918/2018 30013G18KT P6SM SCT250 FM192300 23008KT P6SM FEW250 FM200700 20011KT P6SM SCT250